createdAt,value
2024-04-26T00:02:01.165Z,94.14
2024-04-26T00:04:31.181Z,94.35
2024-04-26T00:07:01.119Z,94.67
2024-04-26T00:09:31.839Z,94.32
2024-04-26T00:12:01.940Z,94.66
2024-04-26T00:14:31.903Z,94.45
2024-04-26T00:17:01.871Z,94.17
2024-04-26T00:19:31.786Z,93.31
2024-04-26T00:22:01.858Z,93.64
2024-04-26T00:24:31.760Z,93.23
2024-04-26T00:27:02.034Z,93.54
2024-04-26T00:29:31.958Z,93.91
2024-04-26T00:32:05.363Z,94.38
2024-04-26T00:34:35.367Z,94.50
2024-04-26T00:37:05.489Z,94.83
2024-04-26T00:39:35.517Z,95.75
2024-04-26T00:42:07.993Z,95.88
2024-04-26T00:44:38.050Z,95.34
2024-04-26T00:47:08.771Z,95.31
2024-04-26T00:49:38.752Z,94.64
2024-04-26T00:52:11.674Z,94.91
2024-04-26T00:54:44.874Z,94.51
2024-04-26T00:57:15.343Z,94.93
2024-04-26T00:59:45.616Z,94.15
2024-04-26T01:02:18.647Z,94.22
2024-04-26T01:04:48.387Z,94.37
2024-04-26T01:07:18.315Z,93.63
2024-04-26T01:09:48.614Z,94.63
2024-04-26T01:12:18.342Z,94.35
2024-04-26T01:14:48.431Z,94.78
2024-04-26T01:17:18.509Z,94.49
2024-04-26T01:19:48.825Z,94.49
2024-04-26T01:22:24.367Z,94.98
2024-04-26T01:24:54.501Z,94.72
2024-04-26T01:27:24.682Z,94.36
2024-04-26T01:29:54.571Z,94.37
2024-04-26T01:32:24.625Z,94.64
2024-04-26T01:34:54.758Z,94.45
2024-04-26T01:37:25.413Z,93.23
2024-04-26T01:39:55.339Z,92.77
2024-04-26T01:42:25.332Z,94.01
2024-04-26T01:44:55.379Z,93.76
2024-04-26T01:47:25.708Z,93.22
2024-04-26T01:49:55.643Z,93.43
2024-04-26T01:52:25.639Z,93.61
2024-04-26T01:54:55.876Z,94.43
2024-04-26T01:57:25.737Z,93.58
2024-04-26T01:59:55.423Z,94.32
2024-04-26T02:02:25.391Z,94.33
2024-04-26T02:04:55.374Z,94.86
2024-04-26T02:07:25.436Z,94.43
2024-04-26T02:09:55.416Z,94.43
2024-04-26T02:12:26.605Z,93.59
2024-04-26T02:14:56.316Z,93.31
2024-04-26T02:17:26.480Z,94.10
2024-04-26T02:19:56.561Z,94.39
2024-04-26T02:22:26.661Z,94.82
2024-04-26T02:24:56.933Z,96.78
2024-04-26T02:27:26.864Z,96.18
2024-04-26T02:29:56.954Z,94.88
2024-04-26T02:32:26.666Z,96.21
2024-04-26T02:34:56.332Z,95.71
2024-04-26T02:37:26.364Z,95.34
2024-04-26T02:39:56.197Z,95.81
2024-04-26T02:42:26.569Z,95.41
2024-04-26T02:44:56.518Z,96.78
2024-04-26T02:47:26.708Z,96.61
2024-04-26T02:49:56.737Z,98.95
2024-04-26T02:52:26.654Z,98.23
2024-04-26T02:54:56.821Z,97.93
2024-04-26T02:57:26.679Z,97.04
2024-04-26T02:59:56.712Z,96.73
2024-04-26T03:02:26.811Z,95.89
2024-04-26T03:04:56.848Z,95.49
2024-04-26T03:07:28.370Z,95.65
2024-04-26T03:09:58.263Z,95.55
2024-04-26T03:12:27.974Z,95.72
2024-04-26T03:14:58.032Z,95.47
2024-04-26T03:17:27.943Z,96.22
2024-04-26T03:19:57.974Z,95.61
2024-04-26T03:22:27.992Z,96.30
2024-04-26T03:24:57.995Z,95.99
2024-04-26T03:27:27.877Z,96.78
2024-04-26T03:29:58.160Z,96.92
2024-04-26T03:32:29.494Z,96.87
2024-04-26T03:34:59.421Z,96.37
2024-04-26T03:37:29.438Z,96.37
2024-04-26T03:39:59.272Z,96.17
2024-04-26T03:42:29.298Z,96.27
2024-04-26T03:44:59.176Z,95.35
2024-04-26T03:47:29.709Z,95.22
2024-04-26T03:50:01.211Z,96.24
2024-04-26T03:52:31.350Z,96.81
2024-04-26T03:55:01.213Z,96.28
2024-04-26T03:57:31.198Z,96.27
2024-04-26T04:00:01.277Z,97.11
2024-04-26T04:02:32.882Z,96.09
2024-04-26T04:05:02.927Z,97.14
2024-04-26T04:07:32.870Z,97.48
2024-04-26T04:10:02.875Z,97.31
2024-04-26T04:12:32.995Z,98.06
2024-04-26T04:15:05.200Z,98.09
2024-04-26T04:17:35.323Z,98.95
2024-04-26T04:20:07.878Z,98.63
2024-04-26T04:22:37.909Z,97.80
2024-04-26T04:25:08.236Z,97.41
2024-04-26T04:27:38.242Z,97.76
2024-04-26T04:30:10.950Z,97.76
2024-04-26T04:32:42.902Z,96.69
2024-04-26T04:35:14.229Z,96.73
2024-04-26T04:37:44.150Z,98.32
2024-04-26T04:40:14.295Z,98.32
2024-04-26T04:42:45.807Z,97.11
2024-04-26T04:45:16.403Z,97.55
2024-04-26T04:47:46.667Z,97.08
2024-04-26T04:50:17.472Z,97.67
2024-04-26T04:52:49.766Z,96.37
2024-04-26T04:55:19.926Z,96.92
2024-04-26T04:57:49.800Z,99.02
2024-04-26T05:00:19.620Z,98.38
2024-04-26T05:02:50.364Z,97.57
2024-04-26T05:05:20.482Z,99.72
2024-04-26T05:07:52.376Z,99.21
2024-04-26T05:10:23.734Z,98.30
2024-04-26T05:13:02.310Z,98.14
2024-04-26T05:15:36.692Z,98.32
2024-04-26T05:18:08.573Z,97.96
2024-04-26T05:20:38.535Z,97.31
2024-04-26T05:23:08.716Z,96.46
2024-04-26T05:25:38.591Z,95.92
2024-04-26T05:28:16.194Z,97.10
2024-04-26T05:30:46.526Z,96.65
2024-04-26T05:33:16.751Z,96.15
2024-04-26T05:35:47.310Z,95.86
2024-04-26T05:38:19.011Z,97.02
2024-04-26T05:40:48.967Z,97.02
2024-04-26T05:43:20.517Z,97.52
2024-04-26T05:45:50.418Z,96.96
2024-04-26T05:48:20.321Z,96.83
2024-04-26T05:50:51.313Z,96.23
2024-04-26T05:53:23.471Z,97.39
2024-04-26T05:55:54.548Z,96.40
2024-04-26T05:58:24.744Z,97.30
2024-04-26T06:00:54.646Z,95.99
2024-04-26T06:03:26.322Z,97.11
2024-04-26T06:05:58.181Z,96.22
2024-04-26T06:08:31.366Z,96.22
2024-04-26T06:11:01.472Z,98.06
2024-04-26T06:13:33.645Z,97.14
2024-04-26T06:16:07.923Z,96.30
2024-04-26T06:18:40.244Z,97.40
2024-04-26T06:21:10.967Z,96.85
2024-04-26T06:23:46.428Z,96.01
2024-04-26T06:26:29.599Z,96.05
2024-04-26T06:29:03.103Z,96.07
2024-04-26T06:31:37.107Z,98.29
2024-04-26T06:34:09.889Z,96.89
2024-04-26T06:36:39.955Z,97.04
2024-04-26T06:39:11.465Z,97.65
2024-04-26T06:41:42.990Z,97.36
2024-04-26T06:44:20.912Z,96.24
2024-04-26T06:46:50.044Z,96.00
2024-04-26T06:49:27.920Z,97.00
2024-04-26T06:52:01.792Z,95.98
2024-04-26T06:54:32.491Z,95.97
2024-04-26T06:57:06.195Z,96.38
2024-04-26T06:59:38.550Z,95.54
2024-04-26T07:02:22.160Z,95.99
2024-04-26T07:04:55.157Z,94.19
2024-04-26T07:07:27.210Z,93.84
2024-04-26T07:09:59.604Z,95.64
2024-04-26T07:12:34.245Z,95.64
2024-04-26T07:15:06.323Z,94.43
2024-04-26T07:17:38.422Z,92.41
2024-04-26T07:20:10.378Z,92.34
2024-04-26T07:22:53.490Z,92.03
2024-04-26T07:25:14.260Z,92.20
2024-04-26T07:27:44.965Z,91.33
2024-04-26T07:30:15.259Z,91.61
2024-04-26T07:32:53.026Z,91.87
2024-04-26T07:35:25.239Z,90.81
2024-04-26T07:37:57.207Z,90.52
2024-04-26T07:40:29.695Z,90.75
2024-04-26T07:43:00.364Z,90.46
2024-04-26T07:45:30.394Z,92.45
2024-04-26T07:48:00.899Z,90.32
2024-04-26T07:50:31.468Z,91.89
2024-04-26T07:53:05.379Z,88.16
2024-04-26T07:55:37.430Z,85.75
2024-04-26T07:58:09.305Z,84.99
2024-04-26T08:00:39.515Z,82.42
2024-04-26T08:03:12.070Z,76.44
2024-04-26T08:05:43.373Z,76.44
2024-04-26T08:08:15.160Z,75.07
2024-04-26T08:10:45.408Z,77.45
2024-04-26T08:13:15.804Z,79.01
2024-04-26T08:15:47.356Z,78.21
2024-04-26T08:18:17.533Z,77.62
2024-04-26T08:20:47.772Z,76.39
2024-04-26T08:23:17.785Z,76.39
2024-04-26T08:25:57.996Z,75.89
2024-04-26T08:28:27.755Z,74.08
2024-04-26T08:30:59.128Z,74.96
2024-04-26T08:33:31.017Z,68.81
2024-04-26T08:36:01.646Z,68.81
2024-04-26T08:38:33.186Z,69.06
2024-04-26T08:41:05.244Z,68.76
2024-04-26T08:43:35.869Z,68.03
2024-04-26T08:46:08.159Z,69.29
2024-04-26T08:48:40.345Z,69.16
2024-04-26T08:51:13.456Z,67.86
2024-04-26T08:53:52.255Z,65.24
2024-04-26T08:56:24.637Z,62.80
2024-04-26T08:58:59.497Z,67.61
2024-04-26T09:01:32.231Z,66.42
2024-04-26T09:04:02.386Z,63.87
2024-04-26T09:06:34.391Z,63.04
2024-04-26T09:09:06.192Z,62.60
2024-04-26T09:11:37.118Z,57.74
2024-04-26T09:14:11.487Z,63.02
2024-04-26T09:16:46.243Z,58.46
2024-04-26T09:19:17.389Z,58.84
2024-04-26T09:21:48.019Z,58.93
2024-04-26T09:24:19.917Z,58.32
2024-04-26T09:26:56.999Z,57.81
2024-04-26T09:29:32.372Z,55.79
2024-04-26T09:32:16.667Z,56.61
2024-04-26T09:34:44.827Z,58.01
2024-04-26T09:37:20.995Z,59.35
2024-04-26T09:39:59.327Z,57.24
2024-04-26T09:42:31.747Z,58.56
2024-04-26T09:45:07.029Z,55.79
2024-04-26T09:47:40.460Z,56.94
2024-04-26T09:50:19.815Z,53.00
2024-04-26T09:53:05.378Z,51.96
2024-04-26T09:55:38.518Z,53.28
2024-04-26T09:58:11.716Z,50.39
2024-04-26T10:00:46.108Z,51.84
2024-04-26T10:03:19.568Z,50.26
2024-04-26T10:06:05.681Z,50.41
2024-04-26T10:08:42.143Z,49.38
2024-04-26T10:11:24.891Z,49.55
2024-04-26T10:13:56.086Z,48.88
2024-04-26T10:16:44.642Z,49.28
2024-04-26T10:19:20.966Z,49.86
2024-04-26T10:21:53.053Z,50.74
2024-04-26T10:24:28.490Z,41.89
2024-04-26T10:27:04.532Z,42.63
2024-04-26T10:29:44.543Z,41.68
2024-04-26T10:32:23.645Z,39.71
2024-04-26T10:34:55.350Z,42.38
2024-04-26T10:37:33.089Z,41.19
2024-04-26T10:40:10.807Z,42.93
2024-04-26T10:42:42.982Z,40.85
2024-04-26T10:45:14.765Z,42.04
2024-04-26T10:47:45.135Z,41.47
2024-04-26T10:50:17.849Z,41.59
2024-04-26T10:52:47.939Z,42.10
2024-04-26T10:55:21.143Z,42.99
2024-04-26T10:57:58.298Z,44.38
2024-04-26T11:00:39.084Z,45.39
2024-04-26T11:03:12.149Z,46.13
2024-04-26T11:05:50.468Z,43.68
2024-04-26T11:08:31.862Z,42.94
2024-04-26T11:11:10.776Z,42.45
2024-04-26T11:13:42.991Z,40.76
2024-04-26T11:16:14.486Z,42.02
2024-04-26T11:18:47.869Z,39.96
2024-04-26T11:21:18.145Z,40.27
2024-04-26T11:23:48.736Z,40.15
2024-04-26T11:26:18.743Z,39.58
2024-04-26T11:28:55.770Z,39.58
2024-04-26T11:31:25.976Z,40.28
2024-04-26T11:33:56.389Z,37.46
2024-04-26T11:36:26.893Z,39.41
2024-04-26T11:38:57.139Z,38.01
2024-04-26T11:41:28.576Z,39.00
2024-04-26T11:44:01.156Z,38.17
2024-04-26T11:46:31.073Z,36.86
2024-04-26T11:49:01.680Z,36.62
2024-04-26T11:51:33.240Z,36.43
2024-04-26T11:54:03.176Z,34.17
2024-04-26T11:56:32.953Z,36.82
2024-04-26T11:59:02.885Z,37.27
2024-04-26T12:01:33.244Z,37.55
2024-04-26T12:04:03.420Z,34.88
2024-04-26T12:06:33.415Z,36.48
2024-04-26T12:09:03.703Z,36.25
2024-04-26T12:11:34.001Z,34.77
2024-04-26T12:14:04.034Z,34.77
2024-04-26T12:16:34.295Z,35.90
2024-04-26T12:19:06.630Z,35.34
2024-04-26T12:21:36.947Z,34.65
2024-04-26T12:24:07.409Z,36.27
2024-04-26T12:26:37.484Z,35.68
2024-04-26T12:29:09.086Z,36.69
2024-04-26T12:31:39.917Z,35.22
2024-04-26T12:34:11.351Z,36.30
2024-04-26T12:36:43.819Z,34.68
2024-04-26T12:39:17.997Z,34.17
2024-04-26T12:41:49.752Z,34.17
2024-04-26T12:44:28.702Z,34.56
2024-04-26T12:47:00.290Z,34.48
2024-04-26T12:49:30.376Z,34.33
2024-04-26T12:52:00.413Z,33.01
2024-04-26T12:54:30.411Z,34.89
2024-04-26T12:57:00.921Z,35.02
2024-04-26T12:59:32.986Z,35.24
2024-04-26T13:02:02.988Z,33.87
2024-04-26T13:04:34.275Z,34.03
2024-04-26T13:07:04.983Z,34.03
2024-04-26T13:09:39.093Z,32.28
2024-04-26T13:12:10.885Z,33.77
2024-04-26T13:14:42.516Z,33.39
2024-04-26T13:17:14.391Z,33.97
2024-04-26T13:19:44.430Z,35.41
2024-04-26T13:22:16.457Z,34.10
2024-04-26T13:24:51.074Z,34.22
2024-04-26T13:27:21.435Z,34.15
2024-04-26T13:29:51.427Z,33.29
2024-04-26T13:32:22.889Z,32.28
2024-04-26T13:34:54.517Z,32.94
2024-04-26T13:37:24.445Z,33.29
2024-04-26T13:39:54.356Z,34.74
2024-04-26T13:42:25.786Z,35.23
2024-04-26T13:44:55.398Z,35.89
2024-04-26T13:47:25.434Z,35.91
2024-04-26T13:49:56.073Z,35.20
2024-04-26T13:52:26.415Z,35.20
2024-04-26T13:54:57.848Z,34.86
2024-04-26T13:57:27.989Z,35.93
2024-04-26T13:59:58.272Z,35.93
2024-04-26T14:02:28.406Z,35.75
2024-04-26T14:05:00.735Z,36.32
2024-04-26T14:07:34.747Z,35.52
2024-04-26T14:10:05.465Z,35.44
2024-04-26T14:12:35.642Z,35.44
2024-04-26T14:15:08.319Z,35.80
2024-04-26T14:17:40.053Z,36.92
2024-04-26T14:20:12.616Z,37.10
2024-04-26T14:22:42.715Z,36.77
2024-04-26T14:25:12.418Z,36.58
2024-04-26T14:27:42.558Z,35.78
2024-04-26T14:30:14.171Z,35.50
2024-04-26T14:32:44.197Z,35.44
2024-04-26T14:35:15.520Z,36.30
2024-04-26T14:37:45.414Z,35.97
2024-04-26T14:40:17.273Z,35.43
2024-04-26T14:42:47.267Z,36.07
2024-04-26T14:45:17.137Z,36.37
2024-04-26T14:47:47.062Z,37.39
2024-04-26T14:50:17.376Z,37.00
2024-04-26T14:52:47.296Z,36.75
2024-04-26T14:55:17.010Z,36.25
2024-04-26T14:57:46.677Z,37.77
2024-04-26T15:00:18.036Z,37.06
2024-04-26T15:02:49.205Z,37.93
2024-04-26T15:05:18.785Z,38.96
2024-04-26T15:07:49.010Z,39.30
2024-04-26T15:10:18.958Z,40.24
2024-04-26T15:12:48.923Z,40.21
2024-04-26T15:15:18.948Z,41.04
2024-04-26T15:17:50.533Z,41.04
2024-04-26T15:20:21.821Z,40.86
2024-04-26T15:22:51.846Z,40.79
2024-04-26T15:25:22.061Z,40.74
2024-04-26T15:27:52.658Z,42.61
2024-04-26T15:30:24.384Z,42.77
2024-04-26T15:32:54.994Z,43.91
2024-04-26T15:35:25.124Z,43.04
2024-04-26T15:37:54.960Z,44.69
2024-04-26T15:40:24.903Z,45.21
2024-04-26T15:42:54.861Z,46.38
2024-04-26T15:45:24.639Z,46.10
2024-04-26T15:47:54.903Z,46.77
2024-04-26T15:50:24.557Z,47.43
2024-04-26T15:52:54.621Z,47.82
2024-04-26T15:55:26.179Z,47.08
2024-04-26T15:57:58.930Z,45.91
2024-04-26T16:00:28.510Z,47.22
2024-04-26T16:02:58.831Z,45.74
2024-04-26T16:05:28.716Z,43.42
2024-04-26T16:07:59.667Z,43.42
2024-04-26T16:10:30.100Z,45.60
2024-04-26T16:13:00.360Z,45.11
2024-04-26T16:15:30.273Z,45.14
2024-04-26T16:18:01.058Z,46.01
2024-04-26T16:20:31.131Z,46.49
2024-04-26T16:23:01.103Z,44.86
2024-04-26T16:25:30.925Z,44.90
2024-04-26T16:28:00.746Z,44.70
2024-04-26T16:30:30.561Z,44.64
2024-04-26T16:33:00.488Z,43.67
2024-04-26T16:35:30.387Z,45.95
2024-04-26T16:38:01.841Z,46.56
2024-04-26T16:40:31.424Z,47.25
2024-04-26T16:43:01.389Z,47.10
2024-04-26T16:45:31.237Z,47.41
2024-04-26T16:48:01.704Z,47.41
2024-04-26T16:50:31.382Z,47.21
2024-04-26T16:53:03.600Z,47.42
2024-04-26T16:55:33.693Z,47.84
2024-04-26T16:58:05.278Z,47.84
2024-04-26T17:00:35.196Z,47.55
2024-04-26T17:03:05.915Z,47.32
2024-04-26T17:05:37.534Z,48.41
2024-04-26T17:08:07.446Z,48.49
2024-04-26T17:10:37.692Z,48.57
2024-04-26T17:13:08.533Z,48.58
2024-04-26T17:15:38.383Z,47.82
2024-04-26T17:18:08.657Z,47.75
2024-04-26T17:20:38.909Z,47.57
2024-04-26T17:23:09.072Z,47.85
2024-04-26T17:25:38.978Z,47.28
2024-04-26T17:28:11.776Z,46.83
2024-04-26T17:30:41.686Z,48.08
2024-04-26T17:33:13.685Z,47.91
2024-04-26T17:35:43.622Z,48.19
2024-04-26T17:38:26.790Z,47.81
2024-04-26T17:40:49.617Z,48.24
2024-04-26T17:43:21.566Z,48.78
2024-04-26T17:45:51.552Z,48.12
2024-04-26T17:48:21.347Z,48.96
2024-04-26T17:50:54.754Z,48.77
2024-04-26T17:53:23.865Z,48.94
2024-04-26T17:55:53.904Z,49.23
2024-04-26T17:58:23.894Z,48.88
2024-04-26T18:00:53.555Z,48.48
2024-04-26T18:03:23.517Z,48.95
2024-04-26T18:05:53.331Z,50.28
2024-04-26T18:08:24.525Z,50.28
2024-04-26T18:10:54.642Z,50.92
2024-04-26T18:13:26.172Z,51.12
2024-04-26T18:15:57.418Z,50.48
2024-04-26T18:18:27.841Z,49.94
2024-04-26T18:20:57.708Z,50.15
2024-04-26T18:23:29.047Z,50.20
2024-04-26T18:25:58.900Z,50.69
2024-04-26T18:28:28.970Z,51.42
2024-04-26T18:30:58.845Z,51.87
2024-04-26T18:33:30.757Z,51.88
2024-04-26T18:36:01.529Z,51.76
2024-04-26T18:38:33.278Z,51.44
2024-04-26T18:41:03.030Z,51.77
2024-04-26T18:43:32.969Z,52.88
2024-04-26T18:46:03.938Z,52.49
2024-04-26T18:48:34.982Z,53.39
2024-04-26T18:51:06.172Z,53.60
2024-04-26T18:53:37.734Z,52.56
2024-04-26T18:56:14.646Z,53.23
2024-04-26T18:58:45.205Z,53.27
2024-04-26T19:01:15.118Z,53.09
2024-04-26T19:03:46.634Z,53.46
2024-04-26T19:06:16.391Z,53.29
2024-04-26T19:08:46.592Z,54.52
2024-04-26T19:11:28.925Z,53.99
2024-04-26T19:14:00.015Z,53.76
2024-04-26T19:16:29.794Z,54.44
2024-04-26T19:18:59.925Z,54.00
2024-04-26T19:21:29.803Z,54.21
2024-04-26T19:23:59.897Z,54.18
2024-04-26T19:26:29.787Z,54.57
2024-04-26T19:28:59.875Z,55.25
2024-04-26T19:31:30.144Z,56.05
2024-04-26T19:34:00.759Z,55.80
2024-04-26T19:36:30.605Z,56.28
2024-04-26T19:39:00.447Z,56.32
2024-04-26T19:41:30.270Z,55.89
2024-04-26T19:44:00.258Z,56.39
2024-04-26T19:46:31.517Z,56.46
2024-04-26T19:49:01.087Z,57.06
2024-04-26T19:51:31.225Z,56.76
2024-04-26T19:54:18.872Z,56.47
2024-04-26T19:56:48.745Z,56.88
2024-04-26T19:59:18.557Z,56.88
2024-04-26T20:01:48.294Z,56.99
2024-04-26T20:04:18.156Z,56.72
2024-04-26T20:06:49.668Z,57.66
2024-04-26T20:09:19.683Z,57.66
2024-04-26T20:11:49.564Z,57.40
2024-04-26T20:14:19.439Z,57.40
2024-04-26T20:16:49.641Z,57.18
2024-04-26T20:19:19.143Z,57.79
2024-04-26T20:21:49.460Z,58.62
2024-04-26T20:24:19.269Z,58.07
2024-04-26T20:26:50.047Z,58.07
2024-04-26T20:29:20.770Z,57.98
2024-04-26T20:31:50.679Z,59.01
2024-04-26T20:34:20.828Z,58.45
2024-04-26T20:36:52.691Z,59.11
2024-04-26T20:39:24.005Z,59.97
2024-04-26T20:41:54.971Z,60.46
2024-04-26T20:44:24.507Z,61.39
2024-04-26T20:46:54.747Z,62.49
2024-04-26T20:49:25.328Z,61.76
2024-04-26T20:51:56.868Z,62.84
2024-04-26T20:54:26.546Z,63.47
2024-04-26T20:56:56.416Z,63.54
2024-04-26T20:59:26.414Z,64.35
2024-04-26T21:01:58.160Z,64.42
2024-04-26T21:04:28.213Z,65.63
2024-04-26T21:06:58.143Z,66.06
2024-04-26T21:09:31.086Z,67.79
2024-04-26T21:12:01.300Z,68.81
2024-04-26T21:14:31.266Z,68.81
2024-04-26T21:17:01.314Z,68.62
2024-04-26T21:19:31.489Z,68.17
2024-04-26T21:22:01.561Z,68.64
2024-04-26T21:24:31.872Z,68.16
2024-04-26T21:27:01.707Z,68.77
2024-04-26T21:29:31.961Z,68.16
2024-04-26T21:32:02.072Z,68.87
2024-04-26T21:34:32.012Z,69.17
2024-04-26T21:37:01.930Z,69.53
2024-04-26T21:39:31.971Z,69.40
2024-04-26T21:42:01.922Z,69.11
2024-04-26T21:44:35.498Z,70.60
2024-04-26T21:47:03.552Z,70.49
2024-04-26T21:49:33.508Z,71.27
2024-04-26T21:52:03.395Z,70.48
2024-04-26T21:54:33.354Z,70.48
2024-04-26T21:57:03.453Z,72.45
2024-04-26T21:59:33.492Z,72.09
2024-04-26T22:02:03.503Z,72.44
2024-04-26T22:04:35.082Z,72.10
2024-04-26T22:07:05.033Z,72.27
2024-04-26T22:09:34.959Z,73.83
2024-04-26T22:12:08.477Z,74.60
2024-04-26T22:14:38.464Z,75.79
2024-04-26T22:17:08.400Z,76.01
2024-04-26T22:19:38.477Z,76.78
2024-04-26T22:22:09.944Z,77.17
2024-04-26T22:24:39.897Z,76.75
2024-04-26T22:27:10.937Z,77.11
2024-04-26T22:29:40.928Z,77.55
2024-04-26T22:32:11.764Z,77.62
2024-04-26T22:34:41.982Z,77.76
2024-04-26T22:37:11.921Z,77.86
2024-04-26T22:39:41.828Z,77.77
2024-04-26T22:42:11.931Z,79.87
2024-04-26T22:44:41.772Z,79.00
2024-04-26T22:47:12.086Z,78.96
2024-04-26T22:49:41.990Z,78.57
2024-04-26T22:52:11.961Z,77.94
2024-04-26T22:54:41.866Z,76.64
2024-04-26T22:57:11.959Z,75.80
2024-04-26T22:59:41.810Z,75.47
2024-04-26T23:02:12.357Z,74.77
2024-04-26T23:04:42.288Z,75.17
2024-04-26T23:07:12.250Z,74.50
2024-04-26T23:09:42.070Z,74.57
2024-04-26T23:12:13.560Z,74.91
2024-04-26T23:14:43.794Z,74.76
2024-04-26T23:17:13.980Z,76.29
2024-04-26T23:19:43.917Z,76.22
2024-04-26T23:22:13.948Z,75.47
2024-04-26T23:24:44.113Z,76.04
2024-04-26T23:27:13.973Z,76.21
2024-04-26T23:29:45.569Z,76.53
2024-04-26T23:32:16.411Z,75.72
2024-04-26T23:34:46.724Z,75.28
2024-04-26T23:37:18.570Z,75.22
2024-04-26T23:39:48.727Z,74.60
2024-04-26T23:42:18.289Z,74.03
2024-04-26T23:44:48.123Z,74.09
2024-04-26T23:47:18.380Z,74.87
2024-04-26T23:49:48.958Z,74.67
2024-04-26T23:52:19.120Z,76.03
2024-04-26T23:54:49.028Z,75.26
2024-04-26T23:57:18.953Z,74.49
2024-04-26T23:59:48.852Z,74.93
